createdAt,value
2022-12-22T00:01:06.568Z,17.73
2022-12-22T00:03:53.974Z,17.47
2022-12-22T00:06:39.444Z,16.10
2022-12-22T00:09:24.993Z,18.47
2022-12-22T00:12:10.488Z,18.43
2022-12-22T00:14:55.830Z,17.00
2022-12-22T00:17:47.046Z,15.77
2022-12-22T00:20:37.681Z,16.43
2022-12-22T00:23:30.853Z,15.43
2022-12-22T00:26:17.512Z,17.93
2022-12-22T00:29:02.918Z,15.87
2022-12-22T00:31:48.619Z,14.03
2022-12-22T00:34:39.296Z,13.10
2022-12-22T00:37:24.656Z,14.03
2022-12-22T00:40:10.043Z,14.50
2022-12-22T00:42:55.485Z,13.23
2022-12-22T00:45:41.014Z,13.93
2022-12-22T00:48:38.351Z,14.33
2022-12-22T00:51:23.637Z,15.37
2022-12-22T00:54:09.679Z,15.00
2022-12-22T00:56:54.936Z,14.83
2022-12-22T00:59:40.380Z,13.93
2022-12-22T01:02:28.915Z,15.17
2022-12-22T01:05:14.371Z,16.13
2022-12-22T01:07:59.611Z,14.77
2022-12-22T01:10:45.423Z,14.93
2022-12-22T01:13:32.817Z,15.83
2022-12-22T01:16:18.718Z,15.17
2022-12-22T01:19:04.010Z,15.27
2022-12-22T01:21:49.970Z,14.43
2022-12-22T01:24:37.021Z,14.90
2022-12-22T01:27:23.243Z,13.47
2022-12-22T01:30:08.783Z,14.80
2022-12-22T01:32:54.081Z,14.33
2022-12-22T01:35:44.925Z,15.43
2022-12-22T01:38:30.584Z,14.73
2022-12-22T01:41:17.099Z,14.23
2022-12-22T01:44:02.422Z,15.47
2022-12-22T01:46:54.860Z,14.30
2022-12-22T01:49:44.600Z,14.20
2022-12-22T01:52:32.213Z,14.33
2022-12-22T01:55:22.405Z,14.90
2022-12-22T01:58:07.830Z,15.23
2022-12-22T02:00:53.148Z,14.93
2022-12-22T02:03:41.233Z,16.37
2022-12-22T02:06:41.696Z,16.30
2022-12-22T02:09:34.575Z,14.63
2022-12-22T02:12:27.440Z,15.60
2022-12-22T02:15:20.653Z,15.83
2022-12-22T02:18:16.549Z,15.90
2022-12-22T02:21:08.537Z,14.43
2022-12-22T02:23:59.893Z,16.37
2022-12-22T02:26:57.385Z,15.00
2022-12-22T02:30:12.550Z,15.43
2022-12-22T02:33:05.370Z,15.60
2022-12-22T02:36:20.991Z,14.07
2022-12-22T02:39:15.825Z,14.53
2022-12-22T02:42:15.324Z,15.13
2022-12-22T02:45:10.047Z,15.63
2022-12-22T02:48:06.828Z,15.02
2022-12-22T02:51:04.862Z,16.53
2022-12-22T02:53:50.528Z,15.67
2022-12-22T02:56:35.793Z,16.33
2022-12-22T02:59:21.075Z,15.67
2022-12-22T03:02:06.579Z,15.50
2022-12-22T03:04:52.030Z,14.03
2022-12-22T03:07:37.262Z,14.57
2022-12-22T03:10:24.652Z,15.27
2022-12-22T03:13:09.963Z,14.83
2022-12-22T03:15:55.426Z,15.30
2022-12-22T03:18:40.794Z,15.00
2022-12-22T03:21:26.038Z,14.43
2022-12-22T03:24:11.458Z,14.67
2022-12-22T03:26:39.103Z,12.83
2022-12-22T03:29:05.740Z,15.67
2022-12-22T03:31:32.576Z,15.33
2022-12-22T03:33:59.306Z,15.30
2022-12-22T03:36:25.896Z,15.00
2022-12-22T03:38:52.564Z,15.10
2022-12-22T03:41:37.854Z,14.57
2022-12-22T03:44:23.133Z,16.57
2022-12-22T03:46:49.829Z,15.33
2022-12-22T03:49:16.515Z,14.67
2022-12-22T03:51:48.905Z,14.13
2022-12-22T03:54:18.605Z,14.10
2022-12-22T03:56:45.695Z,16.20
2022-12-22T03:59:15.743Z,14.17
2022-12-22T04:01:45.516Z,14.67
2022-12-22T04:04:14.064Z,15.93
2022-12-22T04:06:41.328Z,14.50
2022-12-22T04:09:08.013Z,14.90
2022-12-22T04:11:53.320Z,13.37
2022-12-22T04:14:20.758Z,15.77
2022-12-22T04:16:47.798Z,15.87
2022-12-22T04:19:14.709Z,17.17
2022-12-22T04:21:41.406Z,13.50
2022-12-22T04:24:08.426Z,13.53
2022-12-22T04:26:35.297Z,15.47
2022-12-22T04:29:02.057Z,14.23
2022-12-22T04:31:28.948Z,14.33
2022-12-22T04:33:55.581Z,14.43
2022-12-22T04:36:22.258Z,16.97
2022-12-22T04:38:48.893Z,13.93
2022-12-22T04:41:15.614Z,11.97
2022-12-22T04:43:42.244Z,11.97
2022-12-22T04:46:08.949Z,12.47
2022-12-22T04:48:35.922Z,15.10
2022-12-22T04:51:03.385Z,14.17
2022-12-22T04:53:30.722Z,14.40
2022-12-22T04:56:03.025Z,14.57
2022-12-22T04:58:29.924Z,13.33
2022-12-22T05:00:56.715Z,14.90
2022-12-22T05:03:23.871Z,14.37
2022-12-22T05:05:50.648Z,15.77
2022-12-22T05:08:17.231Z,14.13
2022-12-22T05:10:43.840Z,14.87
2022-12-22T05:13:10.520Z,14.30
2022-12-22T05:15:37.549Z,14.77
2022-12-22T05:18:04.658Z,14.33
2022-12-22T05:20:31.348Z,15.20
2022-12-22T05:22:58.649Z,15.30
2022-12-22T05:25:28.536Z,15.80
2022-12-22T05:27:58.174Z,14.77
2022-12-22T05:30:24.933Z,16.20
2022-12-22T05:32:51.585Z,16.60
2022-12-22T05:35:18.212Z,16.03
2022-12-22T05:37:44.829Z,14.27
2022-12-22T05:40:12.052Z,15.20
2022-12-22T05:42:39.423Z,14.30
2022-12-22T05:45:13.352Z,14.87
2022-12-22T05:47:39.991Z,14.10
2022-12-22T05:50:08.128Z,15.87
2022-12-22T05:52:34.825Z,14.30
2022-12-22T05:55:01.530Z,15.07
2022-12-22T05:57:28.217Z,14.17
2022-12-22T05:59:54.939Z,16.40
2022-12-22T06:02:21.791Z,16.17
2022-12-22T06:04:48.705Z,17.00
2022-12-22T06:07:15.383Z,14.40
2022-12-22T06:09:42.004Z,14.67
2022-12-22T06:12:09.063Z,14.67
2022-12-22T06:14:35.764Z,14.43
2022-12-22T06:17:02.486Z,15.97
2022-12-22T06:19:29.162Z,14.67
2022-12-22T06:21:55.843Z,15.10
2022-12-22T06:24:22.506Z,15.73
2022-12-22T06:26:49.122Z,15.20
2022-12-22T06:29:15.780Z,14.73
2022-12-22T06:31:42.740Z,15.63
2022-12-22T06:34:10.407Z,15.30
2022-12-22T06:36:38.936Z,16.03
2022-12-22T06:39:06.428Z,14.20
2022-12-22T06:41:51.855Z,15.00
2022-12-22T06:44:18.622Z,14.13
2022-12-22T06:46:45.306Z,14.60
2022-12-22T06:49:12.137Z,14.43
2022-12-22T06:51:38.802Z,13.83
2022-12-22T06:54:05.510Z,15.10
2022-12-22T06:56:32.228Z,15.40
2022-12-22T06:58:58.866Z,15.47
2022-12-22T07:01:25.649Z,14.73
2022-12-22T07:03:52.473Z,15.00
2022-12-22T07:06:19.260Z,14.13
2022-12-22T07:08:47.065Z,15.37
2022-12-22T07:11:14.848Z,13.60
2022-12-22T07:13:41.851Z,14.80
2022-12-22T07:16:10.314Z,13.87
2022-12-22T07:18:41.458Z,14.93
2022-12-22T07:21:10.895Z,14.07
2022-12-22T07:23:37.962Z,15.23
2022-12-22T07:26:05.976Z,14.90
2022-12-22T07:28:34.305Z,12.37
2022-12-22T07:31:01.061Z,13.60
2022-12-22T07:33:27.897Z,14.10
2022-12-22T07:36:05.717Z,12.93
2022-12-22T07:38:36.902Z,14.60
2022-12-22T07:41:05.550Z,14.33
2022-12-22T07:43:32.398Z,13.10
2022-12-22T07:45:59.009Z,13.03
2022-12-22T07:48:44.417Z,14.17
2022-12-22T07:51:11.148Z,16.30
2022-12-22T07:53:39.960Z,14.80
2022-12-22T07:56:07.014Z,15.00
2022-12-22T07:58:33.691Z,15.47
2022-12-22T08:01:01.321Z,15.47
2022-12-22T08:03:28.203Z,15.30
2022-12-22T08:05:54.912Z,13.77
2022-12-22T08:08:21.589Z,14.67
2022-12-22T08:10:48.182Z,15.33
2022-12-22T08:13:14.925Z,15.20
2022-12-22T08:15:41.629Z,16.53
2022-12-22T08:18:08.311Z,16.80
2022-12-22T08:20:35.164Z,14.50
2022-12-22T08:23:01.861Z,15.90
2022-12-22T08:25:29.510Z,14.70
2022-12-22T08:27:56.963Z,14.97
2022-12-22T08:30:23.777Z,15.90
2022-12-22T08:32:51.160Z,15.83
2022-12-22T08:35:18.515Z,17.00
2022-12-22T08:37:46.138Z,16.17
2022-12-22T08:40:16.280Z,17.77
2022-12-22T08:42:43.082Z,17.07
2022-12-22T08:45:11.366Z,17.10
2022-12-22T08:47:38.150Z,19.33
2022-12-22T08:50:05.451Z,17.27
2022-12-22T08:52:32.086Z,17.93
2022-12-22T08:54:58.718Z,17.73
2022-12-22T08:57:25.333Z,18.33
2022-12-22T08:59:51.935Z,18.57
2022-12-22T09:02:18.679Z,18.17
2022-12-22T09:04:45.548Z,18.70
2022-12-22T09:07:12.287Z,20.77
2022-12-22T09:09:38.881Z,19.47
2022-12-22T09:12:05.733Z,18.93
2022-12-22T09:14:32.850Z,19.07
2022-12-22T09:17:00.010Z,20.27
2022-12-22T09:19:26.684Z,18.93
2022-12-22T09:21:53.341Z,18.93
2022-12-22T09:24:19.982Z,17.67
2022-12-22T09:26:46.761Z,19.20
2022-12-22T09:29:15.455Z,20.67
2022-12-22T09:31:43.119Z,24.30
2022-12-22T09:34:16.766Z,25.03
2022-12-22T09:36:44.971Z,22.13
2022-12-22T09:39:11.724Z,22.63
2022-12-22T09:41:52.941Z,20.73
2022-12-22T09:44:22.741Z,31.07
2022-12-22T09:46:49.998Z,24.30
2022-12-22T09:49:18.640Z,23.70
2022-12-22T09:51:48.580Z,22.23
2022-12-22T09:54:16.209Z,23.67
2022-12-22T09:56:42.895Z,23.97
2022-12-22T09:59:17.754Z,22.03
2022-12-22T10:02:02.319Z,21.33
2022-12-22T10:07:13.531Z,19.57
2022-12-22T10:09:55.498Z,20.07
2022-12-22T10:12:26.383Z,18.83
2022-12-22T10:14:54.004Z,20.23
2022-12-22T10:17:29.522Z,20.73
2022-12-22T10:20:21.771Z,18.30
2022-12-22T10:23:05.066Z,19.97
2022-12-22T10:26:00.544Z,19.97
2022-12-22T10:28:33.893Z,19.87
2022-12-22T10:31:19.651Z,20.53
2022-12-22T10:33:48.775Z,20.10
2022-12-22T10:36:21.045Z,20.73
2022-12-22T10:38:58.452Z,21.13
2022-12-22T10:41:28.014Z,19.97
2022-12-22T10:43:59.794Z,18.97
2022-12-22T10:46:49.916Z,17.70
2022-12-22T10:52:17.080Z,19.13
2022-12-22T10:54:45.072Z,19.77
2022-12-22T10:57:14.829Z,18.20
2022-12-22T10:59:48.748Z,17.47
2022-12-22T11:02:38.215Z,18.60
2022-12-22T11:05:08.208Z,20.03
2022-12-22T11:07:40.268Z,17.87
2022-12-22T11:10:31.866Z,17.43
2022-12-22T11:13:02.801Z,19.37
2022-12-22T11:15:57.839Z,19.63
2022-12-22T11:18:39.516Z,18.77
2022-12-22T11:21:24.824Z,16.33
2022-12-22T11:23:51.444Z,17.80
2022-12-22T11:26:36.852Z,16.93
2022-12-22T11:29:32.707Z,17.13
2022-12-22T11:32:21.595Z,16.70
2022-12-22T11:35:00.655Z,14.97
2022-12-22T11:37:31.810Z,15.77
2022-12-22T11:40:06.580Z,15.27
2022-12-22T11:43:11.243Z,14.77
2022-12-22T11:46:32.356Z,12.95
2022-12-22T11:49:14.667Z,13.57
2022-12-22T11:52:00.290Z,12.73
2022-12-22T11:54:45.441Z,10.90
2022-12-22T11:57:22.860Z,16.27
2022-12-22T12:00:11.704Z,17.00
2022-12-22T12:03:06.005Z,15.20
2022-12-22T12:06:01.093Z,14.82
2022-12-22T12:08:50.370Z,17.13
2022-12-22T12:11:27.433Z,19.67
2022-12-22T12:14:13.605Z,23.73
2022-12-22T12:16:44.502Z,19.50
2022-12-22T12:19:46.044Z,20.17
2022-12-22T12:22:37.688Z,16.53
2022-12-22T12:25:19.824Z,16.10
2022-12-22T12:28:08.258Z,15.30
2022-12-22T12:30:48.550Z,15.23
2022-12-22T12:33:30.962Z,14.20
2022-12-22T12:36:20.075Z,13.80
2022-12-22T12:39:08.870Z,15.37
2022-12-22T12:42:09.998Z,17.77
2022-12-22T12:44:37.107Z,17.00
2022-12-22T12:47:22.036Z,16.90
2022-12-22T12:49:58.915Z,16.30
2022-12-22T12:52:40.746Z,16.20
2022-12-22T12:55:32.638Z,16.63
2022-12-22T12:58:02.179Z,17.07
2022-12-22T13:00:31.895Z,16.63
2022-12-22T13:03:52.973Z,19.50
2022-12-22T13:06:57.131Z,15.80
2022-12-22T13:12:34.130Z,15.67
2022-12-22T13:15:01.891Z,16.13
2022-12-22T13:17:38.444Z,17.07
2022-12-22T13:20:06.549Z,15.57
2022-12-22T13:22:33.394Z,19.10
2022-12-22T13:25:02.175Z,33.17
2022-12-22T13:27:28.967Z,30.60
2022-12-22T13:29:55.622Z,24.00
2022-12-22T13:32:28.920Z,17.40
2022-12-22T13:35:30.837Z,18.00
2022-12-22T13:37:59.020Z,21.37
2022-12-22T13:40:28.365Z,19.47
2022-12-22T13:42:58.061Z,16.83
2022-12-22T13:45:32.073Z,18.17
2022-12-22T13:48:00.911Z,17.42
2022-12-22T13:50:41.860Z,15.63
2022-12-22T13:53:10.004Z,15.00
2022-12-22T13:55:37.239Z,18.73
2022-12-22T13:58:24.167Z,20.47
2022-12-22T14:01:17.200Z,18.60
2022-12-22T14:04:04.110Z,15.53
2022-12-22T14:06:36.026Z,15.70
2022-12-22T14:09:23.239Z,15.97
2022-12-22T14:11:58.018Z,16.03
2022-12-22T14:14:27.827Z,15.40
2022-12-22T14:16:57.684Z,15.17
2022-12-22T14:19:25.114Z,15.30
2022-12-22T14:22:03.626Z,14.80
2022-12-22T14:24:38.020Z,14.33
2022-12-22T14:27:06.281Z,14.27
2022-12-22T14:29:32.984Z,13.30
2022-12-22T14:32:02.041Z,14.13
2022-12-22T14:35:06.850Z,14.60
2022-12-22T14:37:40.681Z,15.45
2022-12-22T14:40:14.929Z,16.55
2022-12-22T14:45:15.664Z,11.70
2022-12-22T14:47:42.337Z,11.00
2022-12-22T14:50:23.773Z,11.13
2022-12-22T14:52:53.057Z,9.33
2022-12-22T14:55:35.273Z,9.87
2022-12-22T14:58:32.693Z,10.27
2022-12-22T15:01:25.054Z,11.17
2022-12-22T15:04:16.804Z,10.87
2022-12-22T15:06:46.020Z,9.80
2022-12-22T15:09:15.706Z,9.60
2022-12-22T15:11:48.264Z,10.27
2022-12-22T15:14:18.015Z,11.77
2022-12-22T15:16:45.570Z,11.70
2022-12-22T15:19:14.495Z,10.27
2022-12-22T15:21:41.203Z,10.90
2022-12-22T15:24:16.825Z,10.60
2022-12-22T15:26:43.930Z,10.33
2022-12-22T15:29:11.022Z,10.30
2022-12-22T15:31:38.638Z,11.73
2022-12-22T15:34:11.739Z,9.40
2022-12-22T15:36:38.365Z,10.07
2022-12-22T15:39:04.987Z,8.50
2022-12-22T15:41:31.587Z,8.97
2022-12-22T15:43:59.153Z,8.67
2022-12-22T15:46:26.240Z,8.63
2022-12-22T15:48:53.108Z,8.87
2022-12-22T15:51:25.064Z,8.77
2022-12-22T15:53:52.089Z,10.60
2022-12-22T15:56:22.542Z,9.63
2022-12-22T15:58:49.375Z,9.10
2022-12-22T16:01:16.176Z,9.50
2022-12-22T16:03:43.078Z,10.43
2022-12-22T16:06:13.695Z,9.37
2022-12-22T16:08:43.416Z,10.17
2022-12-22T16:11:10.617Z,8.57
2022-12-22T16:13:37.839Z,11.43
2022-12-22T16:16:05.157Z,11.17
2022-12-22T16:18:32.973Z,11.33
2022-12-22T16:21:08.032Z,8.90
2022-12-22T16:23:35.894Z,8.67
2022-12-22T16:26:03.705Z,8.37
2022-12-22T16:28:31.017Z,8.47
2022-12-22T16:30:57.728Z,8.93
2022-12-22T16:33:24.661Z,9.63
2022-12-22T16:35:51.354Z,10.30
2022-12-22T16:38:19.276Z,8.50
2022-12-22T16:40:51.483Z,8.93
2022-12-22T16:46:13.452Z,9.17
2022-12-22T16:48:43.526Z,22.13
2022-12-22T16:51:18.216Z,24.57
2022-12-22T16:53:44.975Z,30.33
2022-12-22T16:56:18.120Z,26.33
2022-12-22T16:58:45.852Z,16.30
2022-12-22T17:01:36.879Z,17.23
2022-12-22T17:04:11.150Z,18.10
2022-12-22T17:09:13.063Z,9.97
2022-12-22T17:11:42.514Z,9.90
2022-12-22T17:14:19.436Z,10.67
2022-12-22T17:16:46.149Z,10.37
2022-12-22T17:19:12.808Z,10.23
2022-12-22T17:21:39.582Z,10.00
2022-12-22T17:24:07.273Z,9.87
2022-12-22T17:26:34.639Z,10.20
2022-12-22T17:29:01.630Z,11.13
2022-12-22T17:31:28.857Z,9.80
2022-12-22T17:33:56.731Z,11.33
2022-12-22T17:36:32.362Z,13.33
2022-12-22T17:39:01.313Z,13.90
2022-12-22T17:41:28.108Z,12.23
2022-12-22T17:43:54.802Z,11.57
2022-12-22T17:46:22.121Z,10.60
2022-12-22T17:48:49.159Z,9.93
2022-12-22T17:51:28.273Z,10.47
2022-12-22T17:53:57.039Z,11.70
2022-12-22T17:56:25.420Z,11.90
2022-12-22T17:58:52.191Z,10.50
2022-12-22T18:01:27.869Z,9.83
2022-12-22T18:03:55.192Z,12.13
2022-12-22T18:06:25.714Z,11.97
2022-12-22T18:08:53.526Z,11.10
2022-12-22T18:11:20.428Z,10.33
2022-12-22T18:13:47.119Z,10.87
2022-12-22T18:16:16.257Z,10.57
2022-12-22T18:18:43.707Z,10.03
2022-12-22T18:21:20.143Z,9.80
2022-12-22T18:23:50.234Z,10.27
2022-12-22T18:26:21.227Z,9.63
2022-12-22T18:28:48.769Z,9.37
2022-12-22T18:31:15.505Z,9.10
2022-12-22T18:33:42.194Z,8.90
2022-12-22T18:36:16.608Z,8.80
2022-12-22T18:38:44.829Z,8.90
2022-12-22T18:41:17.145Z,8.07
2022-12-22T18:43:44.182Z,8.50
2022-12-22T18:46:11.392Z,9.10
2022-12-22T18:48:38.159Z,9.37
2022-12-22T18:51:17.296Z,10.50
2022-12-22T18:53:44.494Z,10.60
2022-12-22T18:56:14.595Z,9.63
2022-12-22T18:58:41.961Z,11.57
2022-12-22T19:01:17.373Z,12.93
2022-12-22T19:03:45.694Z,12.17
2022-12-22T19:06:13.718Z,12.53
2022-12-22T19:08:45.769Z,14.50
2022-12-22T19:11:13.792Z,13.80
2022-12-22T19:13:46.590Z,13.03
2022-12-22T19:16:16.004Z,13.73
2022-12-22T19:18:42.921Z,15.30
2022-12-22T19:21:13.271Z,16.93
2022-12-22T19:23:40.365Z,14.03
2022-12-22T19:26:09.497Z,16.50
2022-12-22T19:28:42.399Z,16.30
2022-12-22T19:31:11.628Z,15.97
2022-12-22T19:33:41.593Z,16.07
2022-12-22T19:36:16.518Z,20.03
2022-12-22T19:38:49.895Z,21.03
2022-12-22T19:41:30.494Z,23.13
2022-12-22T19:43:57.265Z,20.90
2022-12-22T19:46:26.110Z,19.83
2022-12-22T19:48:52.848Z,21.40
2022-12-22T19:51:19.682Z,19.87
2022-12-22T19:53:46.322Z,18.93
2022-12-22T19:56:21.463Z,17.90
2022-12-22T19:58:48.310Z,21.50
2022-12-22T20:01:15.088Z,19.57
2022-12-22T20:03:41.823Z,18.00
2022-12-22T20:06:08.967Z,19.47
2022-12-22T20:08:35.778Z,15.97
2022-12-22T20:11:02.714Z,17.77
2022-12-22T20:13:31.834Z,17.33
2022-12-22T20:15:58.997Z,16.23
2022-12-22T20:18:28.322Z,15.33
2022-12-22T20:21:04.544Z,16.70
2022-12-22T20:23:34.339Z,15.17
2022-12-22T20:26:04.252Z,14.70
2022-12-22T20:28:34.453Z,15.97
2022-12-22T20:31:02.667Z,15.43
2022-12-22T20:33:29.560Z,14.43
2022-12-22T20:35:58.169Z,16.33
2022-12-22T20:38:36.082Z,16.60
2022-12-22T20:41:05.064Z,15.03
2022-12-22T20:43:32.636Z,17.27
2022-12-22T20:46:22.982Z,16.43
2022-12-22T20:48:53.805Z,16.73
2022-12-22T20:51:21.518Z,16.53
2022-12-22T20:53:50.124Z,16.50
2022-12-22T20:56:26.953Z,15.70
2022-12-22T20:58:54.704Z,15.90
2022-12-22T21:01:21.643Z,15.50
2022-12-22T21:03:48.425Z,16.00
2022-12-22T21:06:29.277Z,15.60
2022-12-22T21:08:58.137Z,14.97
2022-12-22T21:11:25.171Z,15.23
2022-12-22T21:13:52.688Z,15.03
2022-12-22T21:16:23.163Z,16.83
2022-12-22T21:18:50.759Z,16.03
2022-12-22T21:21:17.371Z,15.00
2022-12-22T21:23:44.003Z,14.20
2022-12-22T21:26:19.110Z,15.20
2022-12-22T21:28:45.988Z,13.90
2022-12-22T21:31:12.610Z,17.47
2022-12-22T21:33:39.307Z,15.00
2022-12-22T21:36:15.554Z,15.90
2022-12-22T21:38:42.163Z,15.97
2022-12-22T21:41:08.879Z,16.63
2022-12-22T21:43:35.544Z,16.23
2022-12-22T21:46:02.389Z,16.77
2022-12-22T21:48:29.077Z,15.80
2022-12-22T21:50:55.759Z,14.90
2022-12-22T21:53:22.904Z,15.67
2022-12-22T21:55:52.160Z,14.70
2022-12-22T21:58:18.777Z,14.70
2022-12-22T22:00:48.167Z,14.77
2022-12-22T22:03:15.966Z,14.37
2022-12-22T22:05:43.152Z,15.63
2022-12-22T22:08:11.200Z,16.77
2022-12-22T22:10:40.331Z,15.60
2022-12-22T22:13:07.083Z,16.80
2022-12-22T22:16:14.829Z,16.20
2022-12-22T22:18:43.398Z,14.83
2022-12-22T22:21:11.041Z,14.57
2022-12-22T22:23:37.786Z,15.27
2022-12-22T22:26:05.176Z,14.63
2022-12-22T22:28:32.471Z,14.00
2022-12-22T22:30:59.872Z,14.20
2022-12-22T22:33:26.540Z,13.90
2022-12-22T22:35:53.992Z,15.27
2022-12-22T22:38:21.259Z,15.10
2022-12-22T22:40:49.104Z,14.90
2022-12-22T22:43:16.082Z,14.10
2022-12-22T22:45:46.505Z,14.13
2022-12-22T22:48:19.811Z,15.20
2022-12-22T22:50:46.463Z,14.67
2022-12-22T22:53:13.136Z,14.47
2022-12-22T22:55:39.821Z,15.90
2022-12-22T22:58:07.494Z,12.87
2022-12-22T23:00:34.246Z,14.33
2022-12-22T23:03:01.256Z,14.50
2022-12-22T23:05:27.996Z,14.57
2022-12-22T23:07:54.888Z,13.93
2022-12-22T23:10:21.517Z,15.40
2022-12-22T23:12:48.136Z,14.20
2022-12-22T23:15:15.166Z,14.83
2022-12-22T23:17:42.037Z,14.97
2022-12-22T23:20:11.570Z,15.53
2022-12-22T23:22:38.194Z,14.83
2022-12-22T23:25:05.079Z,14.13
2022-12-22T23:27:31.734Z,13.87
2022-12-22T23:29:58.357Z,14.30
2022-12-22T23:32:25.019Z,15.10
2022-12-22T23:34:53.297Z,14.83
2022-12-22T23:37:20.031Z,14.87
2022-12-22T23:39:49.092Z,16.47
2022-12-22T23:42:15.748Z,13.50
2022-12-22T23:44:42.361Z,14.13
2022-12-22T23:47:09.451Z,14.33
2022-12-22T23:49:36.314Z,14.33
2022-12-22T23:52:03.030Z,15.10
2022-12-22T23:54:30.400Z,14.57
2022-12-22T23:56:57.590Z,13.77
2022-12-22T23:59:24.257Z,14.57
